createdAt,value
2024-03-13T00:03:18.709Z,41.5
2024-03-13T00:08:25.006Z,41.5
2024-03-13T00:13:31.222Z,41.5
2024-03-13T00:18:37.533Z,41.5
2024-03-13T00:23:43.778Z,41.5
2024-03-13T00:28:49.997Z,41.5
2024-03-13T00:33:56.236Z,41.5
2024-03-13T00:39:02.608Z,41.5
2024-03-13T00:44:08.760Z,41.5
2024-03-13T00:49:14.969Z,41.5
2024-03-13T00:54:20.225Z,41.5
2024-03-13T00:59:26.491Z,41.5
2024-03-13T01:04:32.843Z,41.5
2024-03-13T01:09:39.007Z,41.5
2024-03-13T01:14:45.285Z,41
2024-03-13T01:19:51.558Z,41
2024-03-13T01:24:57.872Z,41
2024-03-13T01:30:04.180Z,41
2024-03-13T01:35:10.398Z,41
2024-03-13T01:40:16.669Z,41
2024-03-13T01:45:22.962Z,41
2024-03-13T01:50:29.172Z,41
2024-03-13T01:55:35.391Z,41
2024-03-13T02:00:40.725Z,41
2024-03-13T02:05:46.877Z,41
2024-03-13T02:10:53.173Z,41
2024-03-13T02:15:59.406Z,41
2024-03-13T02:21:05.751Z,41
2024-03-13T02:26:11.998Z,41
2024-03-13T02:31:18.255Z,41
2024-03-13T02:36:24.517Z,41
2024-03-13T02:41:30.795Z,41
2024-03-13T02:46:36.995Z,41
2024-03-13T02:51:43.429Z,41
2024-03-13T02:56:49.559Z,41
2024-03-13T03:01:55.833Z,41
2024-03-13T03:07:01.153Z,41
2024-03-13T03:12:07.402Z,41
2024-03-13T03:17:13.756Z,41
2024-03-13T03:22:19.991Z,41
2024-03-13T03:27:26.183Z,41
2024-03-13T03:32:32.474Z,41
2024-03-13T03:37:38.803Z,41
2024-03-13T03:42:45.018Z,41
2024-03-13T03:47:51.282Z,41
2024-03-13T03:52:57.547Z,41
2024-03-13T03:58:03.813Z,41
2024-03-13T04:03:10.140Z,41
2024-03-13T04:08:16.358Z,41
2024-03-13T04:13:21.623Z,41
2024-03-13T04:18:27.889Z,41
2024-03-13T04:23:34.193Z,41
2024-03-13T04:28:40.420Z,41
2024-03-13T04:33:46.729Z,41
2024-03-13T04:38:53.108Z,41
2024-03-13T04:43:59.240Z,41
2024-03-13T04:49:04.532Z,40.5
2024-03-13T04:54:10.824Z,40.5
2024-03-13T04:59:17.071Z,41
2024-03-13T05:04:23.333Z,41
2024-03-13T05:09:29.608Z,40.5
2024-03-13T05:14:35.895Z,40.5
2024-03-13T05:19:42.180Z,40.5
2024-03-13T05:24:48.443Z,40.5
2024-03-13T05:29:54.651Z,40.5
2024-03-13T05:35:00.885Z,40.5
2024-03-13T05:40:07.126Z,40.5
2024-03-13T05:45:13.347Z,40.5
2024-03-13T05:50:19.551Z,40.5
2024-03-13T05:55:24.781Z,40.5
2024-03-13T06:00:31.141Z,40.5
2024-03-13T06:05:37.284Z,40.5
2024-03-13T06:10:43.361Z,40.5
2024-03-13T06:15:49.626Z,40.5
2024-03-13T06:20:55.912Z,40.5
2024-03-13T06:26:02.010Z,40.5
2024-03-13T06:31:08.215Z,40.5
2024-03-13T06:36:14.506Z,40.5
2024-03-13T06:41:20.625Z,40.5
2024-03-13T06:46:26.879Z,40
2024-03-13T06:51:33.068Z,40
2024-03-13T06:56:39.274Z,40
2024-03-13T07:01:45.492Z,40
2024-03-13T07:06:50.673Z,40
2024-03-13T07:11:56.853Z,40
2024-03-13T07:17:03.106Z,40
2024-03-13T07:22:09.320Z,40
2024-03-13T07:27:15.451Z,40
2024-03-13T07:32:21.611Z,40
2024-03-13T07:37:27.794Z,39.5
2024-03-13T07:42:34.014Z,39.5
2024-03-13T07:47:40.207Z,39
2024-03-13T07:52:46.456Z,38.5
2024-03-13T07:57:52.607Z,38.5
2024-03-13T08:02:59.014Z,38.5
2024-03-13T09:09:18.400Z,40
2024-03-13T09:14:24.641Z,40
2024-03-13T09:19:29.797Z,40
2024-03-13T09:24:35.999Z,40
2024-03-13T09:29:42.237Z,40
2024-03-13T09:34:48.389Z,40
2024-03-13T09:39:54.618Z,40
2024-03-13T09:45:00.760Z,40
2024-03-13T09:50:06.953Z,40.5
2024-03-13T09:55:13.142Z,40.5
2024-03-13T10:00:19.317Z,40.5
2024-03-13T10:05:25.564Z,40.5
2024-03-13T10:10:31.689Z,40.5
2024-03-13T10:15:37.859Z,40.5
2024-03-13T10:20:44.040Z,41
2024-03-13T10:25:49.232Z,41
2024-03-13T10:30:55.375Z,41
2024-03-13T10:36:01.774Z,41
2024-03-13T10:41:07.939Z,41
2024-03-13T10:46:14.239Z,41
2024-03-13T10:51:20.333Z,41.5
2024-03-13T10:56:26.308Z,41.5
2024-03-13T11:01:32.659Z,41.5
2024-03-13T11:06:38.619Z,41.5
2024-03-13T11:11:44.813Z,41.5
2024-03-13T11:16:51.047Z,41.5
2024-03-13T11:21:57.145Z,41.5
2024-03-13T11:27:03.297Z,41.5
2024-03-13T11:32:08.548Z,42
2024-03-13T11:37:14.929Z,42
2024-03-13T11:42:20.957Z,42
2024-03-13T11:47:27.103Z,42
2024-03-13T11:52:33.375Z,41.5
2024-03-13T11:57:39.423Z,41.5
2024-03-13T12:02:45.625Z,41.5
2024-03-13T12:07:51.690Z,41.5
2024-03-13T12:12:57.924Z,42
2024-03-13T12:18:04.088Z,42
2024-03-13T12:23:10.242Z,42
2024-03-13T12:28:16.312Z,42
2024-03-13T12:33:22.503Z,42
2024-03-13T12:38:28.639Z,42
2024-03-13T12:43:33.800Z,42
2024-03-13T12:48:40.012Z,42
2024-03-13T12:53:46.187Z,42.5
2024-03-13T12:58:52.286Z,42.5
2024-03-13T13:03:58.527Z,42.5
2024-03-13T13:09:04.624Z,42.5
2024-03-13T13:14:10.975Z,42.5
2024-03-13T13:19:16.925Z,42.5
2024-03-13T13:24:23.070Z,42.5
2024-03-13T13:29:29.227Z,43
2024-03-13T13:34:35.381Z,43
2024-03-13T13:39:41.561Z,43
2024-03-13T13:44:47.751Z,43
2024-03-13T13:49:53.957Z,43
2024-03-13T13:54:59.230Z,43
2024-03-13T14:00:05.388Z,43
2024-03-13T14:05:11.598Z,43
2024-03-13T14:10:17.803Z,43.5
2024-03-13T14:15:23.840Z,43.5
2024-03-13T14:20:30.090Z,43.5
2024-03-13T14:25:36.298Z,43.5
2024-03-13T14:30:42.407Z,43.5
